sensor_id;sensor_type;location;lat;lon;timestamp;P1;durP1;ratioP1;P2;durP2;ratioP2
8088;SDS011;57635;49.194;12.104;2023-05-15T00:01:30;2.70;;;2.60;;
8088;SDS011;57635;49.194;12.104;2023-05-15T00:03:57;2.70;;;2.60;;
8088;SDS011;57635;49.194;12.104;2023-05-15T00:06:26;3.10;;;2.80;;
8088;SDS011;57635;49.194;12.104;2023-05-15T00:08:54;3.10;;;2.90;;
8088;SDS011;57635;49.194;12.104;2023-05-15T00:11:21;2.50;;;2.30;;
8088;SDS011;57635;49.194;12.104;2023-05-15T00:13:49;2.63;;;2.53;;
8088;SDS011;57635;49.194;12.104;2023-05-15T00:16:17;2.80;;;2.70;;
8088;SDS011;57635;49.194;12.104;2023-05-15T00:18:45;3.27;;;3.17;;
8088;SDS011;57635;49.194;12.104;2023-05-15T00:21:12;2.87;;;2.77;;
8088;SDS011;57635;49.194;12.104;2023-05-15T00:23:41;2.83;;;2.73;;
8088;SDS011;57635;49.194;12.104;2023-05-15T00:26:09;2.97;;;2.77;;
8088;SDS011;57635;49.194;12.104;2023-05-15T00:28:38;3.13;;;2.93;;
8088;SDS011;57635;49.194;12.104;2023-05-15T00:31:06;2.90;;;2.80;;
8088;SDS011;57635;49.194;12.104;2023-05-15T00:33:34;2.70;;;2.60;;
8088;SDS011;57635;49.194;12.104;2023-05-15T00:36:02;3.33;;;3.23;;
8088;SDS011;57635;49.194;12.104;2023-05-15T00:38:30;2.83;;;2.73;;
8088;SDS011;57635;49.194;12.104;2023-05-15T00:41:00;2.97;;;2.87;;
8088;SDS011;57635;49.194;12.104;2023-05-15T00:43:27;3.90;;;2.87;;
8088;SDS011;57635;49.194;12.104;2023-05-15T00:45:55;4.03;;;2.97;;
8088;SDS011;57635;49.194;12.104;2023-05-15T00:48:24;3.07;;;2.97;;
8088;SDS011;57635;49.194;12.104;2023-05-15T00:50:51;2.67;;;2.57;;
8088;SDS011;57635;49.194;12.104;2023-05-15T00:53:19;3.07;;;2.77;;
8088;SDS011;57635;49.194;12.104;2023-05-15T00:55:47;2.70;;;2.60;;
8088;SDS011;57635;49.194;12.104;2023-05-15T00:58:17;2.70;;;2.60;;
8088;SDS011;57635;49.194;12.104;2023-05-15T01:00:48;3.17;;;2.97;;
8088;SDS011;57635;49.194;12.104;2023-05-15T01:03:16;5.07;;;4.67;;
8088;SDS011;57635;49.194;12.104;2023-05-15T01:05:44;3.57;;;3.37;;
8088;SDS011;57635;49.194;12.104;2023-05-15T01:08:12;2.67;;;2.57;;
8088;SDS011;57635;49.194;12.104;2023-05-15T01:10:42;2.97;;;2.87;;
8088;SDS011;57635;49.194;12.104;2023-05-15T01:13:10;2.77;;;2.67;;
8088;SDS011;57635;49.194;12.104;2023-05-15T01:15:41;2.60;;;2.50;;
8088;SDS011;57635;49.194;12.104;2023-05-15T01:18:09;3.00;;;2.90;;
8088;SDS011;57635;49.194;12.104;2023-05-15T01:20:45;3.30;;;2.97;;
8088;SDS011;57635;49.194;12.104;2023-05-15T01:23:18;3.10;;;3.00;;
8088;SDS011;57635;49.194;12.104;2023-05-15T01:29:06;3.60;;;3.40;;
8088;SDS011;57635;49.194;12.104;2023-05-15T01:31:35;2.83;;;2.73;;
8088;SDS011;57635;49.194;12.104;2023-05-15T01:34:05;3.90;;;3.50;;
8088;SDS011;57635;49.194;12.104;2023-05-15T01:36:36;3.60;;;3.40;;
8088;SDS011;57635;49.194;12.104;2023-05-15T01:39:04;3.50;;;3.30;;
8088;SDS011;57635;49.194;12.104;2023-05-15T01:41:34;3.40;;;3.20;;
8088;SDS011;57635;49.194;12.104;2023-05-15T01:44:06;3.33;;;3.13;;
8088;SDS011;57635;49.194;12.104;2023-05-15T01:46:35;2.73;;;2.60;;
8088;SDS011;57635;49.194;12.104;2023-05-15T01:49:05;3.23;;;3.03;;
8088;SDS011;57635;49.194;12.104;2023-05-15T01:51:34;2.77;;;2.67;;
8088;SDS011;57635;49.194;12.104;2023-05-15T01:54:04;3.40;;;3.20;;
8088;SDS011;57635;49.194;12.104;2023-05-15T01:56:32;2.90;;;2.80;;
8088;SDS011;57635;49.194;12.104;2023-05-15T01:59:01;3.47;;;3.23;;
8088;SDS011;57635;49.194;12.104;2023-05-15T02:01:32;3.10;;;2.90;;
8088;SDS011;57635;49.194;12.104;2023-05-15T02:04:00;3.07;;;2.87;;
8088;SDS011;57635;49.194;12.104;2023-05-15T02:06:29;3.30;;;3.20;;
8088;SDS011;57635;49.194;12.104;2023-05-15T02:08:57;3.33;;;3.13;;
8088;SDS011;57635;49.194;12.104;2023-05-15T02:11:27;3.60;;;3.40;;
8088;SDS011;57635;49.194;12.104;2023-05-15T02:13:55;3.47;;;3.27;;
8088;SDS011;57635;49.194;12.104;2023-05-15T02:16:23;3.27;;;3.00;;
8088;SDS011;57635;49.194;12.104;2023-05-15T02:18:52;3.83;;;3.53;;
8088;SDS011;57635;49.194;12.104;2023-05-15T02:21:20;2.83;;;2.73;;
8088;SDS011;57635;49.194;12.104;2023-05-15T02:23:48;3.17;;;3.07;;
8088;SDS011;57635;49.194;12.104;2023-05-15T02:26:22;3.47;;;3.27;;
8088;SDS011;57635;49.194;12.104;2023-05-15T02:28:53;2.93;;;2.83;;
8088;SDS011;57635;49.194;12.104;2023-05-15T02:31:29;3.13;;;2.93;;
8088;SDS011;57635;49.194;12.104;2023-05-15T02:34:02;3.30;;;3.10;;
8088;SDS011;57635;49.194;12.104;2023-05-15T02:36:35;3.50;;;3.30;;
8088;SDS011;57635;49.194;12.104;2023-05-15T02:39:06;3.07;;;2.87;;
8088;SDS011;57635;49.194;12.104;2023-05-15T02:41:35;3.20;;;3.00;;
8088;SDS011;57635;49.194;12.104;2023-05-15T02:44:03;2.93;;;2.83;;
8088;SDS011;57635;49.194;12.104;2023-05-15T02:46:31;2.73;;;2.63;;
8088;SDS011;57635;49.194;12.104;2023-05-15T02:49:01;3.00;;;2.80;;
8088;SDS011;57635;49.194;12.104;2023-05-15T02:51:28;2.70;;;2.60;;
8088;SDS011;57635;49.194;12.104;2023-05-15T02:53:56;2.60;;;2.50;;
8088;SDS011;57635;49.194;12.104;2023-05-15T02:56:26;2.60;;;2.50;;
8088;SDS011;57635;49.194;12.104;2023-05-15T02:58:54;2.63;;;2.53;;
8088;SDS011;57635;49.194;12.104;2023-05-15T03:01:22;2.97;;;2.87;;
8088;SDS011;57635;49.194;12.104;2023-05-15T03:03:49;3.10;;;3.00;;
8088;SDS011;57635;49.194;12.104;2023-05-15T03:06:19;2.90;;;2.80;;
8088;SDS011;57635;49.194;12.104;2023-05-15T03:08:46;2.87;;;2.77;;
8088;SDS011;57635;49.194;12.104;2023-05-15T03:11:14;2.60;;;2.50;;
8088;SDS011;57635;49.194;12.104;2023-05-15T03:13:44;3.17;;;2.97;;
8088;SDS011;57635;49.194;12.104;2023-05-15T03:16:11;2.90;;;2.80;;
8088;SDS011;57635;49.194;12.104;2023-05-15T03:18:39;3.20;;;3.00;;
8088;SDS011;57635;49.194;12.104;2023-05-15T03:21:07;2.90;;;2.70;;
8088;SDS011;57635;49.194;12.104;2023-05-15T03:23:36;3.00;;;2.80;;
8088;SDS011;57635;49.194;12.104;2023-05-15T03:26:04;3.07;;;2.87;;
8088;SDS011;57635;49.194;12.104;2023-05-15T03:28:31;3.03;;;2.93;;
8088;SDS011;57635;49.194;12.104;2023-05-15T03:30:59;3.27;;;3.10;;
8088;SDS011;57635;49.194;12.104;2023-05-15T03:33:26;3.93;;;3.60;;
8088;SDS011;57635;49.194;12.104;2023-05-15T03:35:54;3.63;;;3.43;;
8088;SDS011;57635;49.194;12.104;2023-05-15T03:38:21;3.70;;;3.50;;
8088;SDS011;57635;49.194;12.104;2023-05-15T03:40:50;4.27;;;4.03;;
8088;SDS011;57635;49.194;12.104;2023-05-15T03:43:18;4.27;;;4.00;;
8088;SDS011;57635;49.194;12.104;2023-05-15T03:45:45;4.50;;;4.20;;
8088;SDS011;57635;49.194;12.104;2023-05-15T03:48:13;4.40;;;4.10;;
8088;SDS011;57635;49.194;12.104;2023-05-15T03:50:41;4.10;;;3.90;;
8088;SDS011;57635;49.194;12.104;2023-05-15T03:53:10;4.20;;;3.80;;
8088;SDS011;57635;49.194;12.104;2023-05-15T03:55:38;3.90;;;3.70;;
8088;SDS011;57635;49.194;12.104;2023-05-15T03:58:07;4.30;;;4.00;;
8088;SDS011;57635;49.194;12.104;2023-05-15T04:00:34;4.00;;;3.80;;
8088;SDS011;57635;49.194;12.104;2023-05-15T04:03:02;3.63;;;3.53;;
8088;SDS011;57635;49.194;12.104;2023-05-15T04:05:29;3.50;;;3.30;;
8088;SDS011;57635;49.194;12.104;2023-05-15T04:07:57;4.07;;;3.87;;
8088;SDS011;57635;49.194;12.104;2023-05-15T04:10:24;3.90;;;3.70;;
8088;SDS011;57635;49.194;12.104;2023-05-15T04:12:52;3.90;;;3.70;;
8088;SDS011;57635;49.194;12.104;2023-05-15T04:15:22;4.60;;;4.30;;
8088;SDS011;57635;49.194;12.104;2023-05-15T04:17:51;4.20;;;4.00;;
8088;SDS011;57635;49.194;12.104;2023-05-15T04:20:20;4.67;;;4.37;;
8088;SDS011;57635;49.194;12.104;2023-05-15T04:22:48;4.70;;;4.40;;
8088;SDS011;57635;49.194;12.104;2023-05-15T04:25:16;5.03;;;4.63;;
8088;SDS011;57635;49.194;12.104;2023-05-15T04:27:45;4.57;;;4.27;;
8088;SDS011;57635;49.194;12.104;2023-05-15T04:30:14;4.60;;;4.30;;
8088;SDS011;57635;49.194;12.104;2023-05-15T04:32:43;4.90;;;4.50;;
8088;SDS011;57635;49.194;12.104;2023-05-15T04:35:11;5.33;;;5.03;;
8088;SDS011;57635;49.194;12.104;2023-05-15T04:37:40;4.73;;;4.43;;
8088;SDS011;57635;49.194;12.104;2023-05-15T04:40:10;4.87;;;4.47;;
8088;SDS011;57635;49.194;12.104;2023-05-15T04:42:40;5.53;;;5.03;;
8088;SDS011;57635;49.194;12.104;2023-05-15T04:45:08;5.40;;;5.07;;
8088;SDS011;57635;49.194;12.104;2023-05-15T04:47:36;4.77;;;4.47;;
8088;SDS011;57635;49.194;12.104;2023-05-15T04:50:05;5.17;;;4.80;;
8088;SDS011;57635;49.194;12.104;2023-05-15T04:52:34;5.33;;;4.37;;
8088;SDS011;57635;49.194;12.104;2023-05-15T04:55:01;5.20;;;4.90;;
8088;SDS011;57635;49.194;12.104;2023-05-15T04:57:29;4.47;;;4.17;;
8088;SDS011;57635;49.194;12.104;2023-05-15T04:59:57;4.50;;;4.30;;
8088;SDS011;57635;49.194;12.104;2023-05-15T05:02:24;4.70;;;4.40;;
8088;SDS011;57635;49.194;12.104;2023-05-15T05:04:52;5.67;;;5.23;;
8088;SDS011;57635;49.194;12.104;2023-05-15T05:07:21;5.07;;;4.77;;
8088;SDS011;57635;49.194;12.104;2023-05-15T05:09:48;4.80;;;4.50;;
8088;SDS011;57635;49.194;12.104;2023-05-15T05:12:16;4.90;;;4.60;;
8088;SDS011;57635;49.194;12.104;2023-05-15T05:14:44;5.00;;;4.63;;
8088;SDS011;57635;49.194;12.104;2023-05-15T05:17:11;5.10;;;4.70;;
8088;SDS011;57635;49.194;12.104;2023-05-15T05:19:39;4.50;;;4.20;;
8088;SDS011;57635;49.194;12.104;2023-05-15T05:22:07;4.77;;;4.47;;
8088;SDS011;57635;49.194;12.104;2023-05-15T05:24:36;4.80;;;4.50;;
8088;SDS011;57635;49.194;12.104;2023-05-15T05:27:04;5.00;;;4.70;;
8088;SDS011;57635;49.194;12.104;2023-05-15T05:29:31;5.77;;;5.37;;
8088;SDS011;57635;49.194;12.104;2023-05-15T05:32:00;5.30;;;5.00;;
8088;SDS011;57635;49.194;12.104;2023-05-15T05:34:27;8.40;;;7.80;;
8088;SDS011;57635;49.194;12.104;2023-05-15T05:36:55;6.13;;;5.73;;
8088;SDS011;57635;49.194;12.104;2023-05-15T05:39:23;5.23;;;4.93;;
8088;SDS011;57635;49.194;12.104;2023-05-15T05:41:51;5.40;;;5.10;;
8088;SDS011;57635;49.194;12.104;2023-05-15T05:44:19;5.20;;;4.90;;
8088;SDS011;57635;49.194;12.104;2023-05-15T05:46:47;4.97;;;4.70;;
8088;SDS011;57635;49.194;12.104;2023-05-15T05:49:15;4.90;;;4.60;;
8088;SDS011;57635;49.194;12.104;2023-05-15T05:51:43;4.77;;;4.53;;
8088;SDS011;57635;49.194;12.104;2023-05-15T05:54:11;5.57;;;5.17;;
8088;SDS011;57635;49.194;12.104;2023-05-15T05:56:40;6.10;;;5.70;;
8088;SDS011;57635;49.194;12.104;2023-05-15T05:59:09;6.63;;;6.13;;
8088;SDS011;57635;49.194;12.104;2023-05-15T06:01:36;6.20;;;5.80;;
8088;SDS011;57635;49.194;12.104;2023-05-15T06:04:04;6.40;;;5.80;;
8088;SDS011;57635;49.194;12.104;2023-05-15T06:06:32;5.53;;;5.13;;
8088;SDS011;57635;49.194;12.104;2023-05-15T06:09:00;6.60;;;5.57;;
8088;SDS011;57635;49.194;12.104;2023-05-15T06:11:29;6.13;;;5.73;;
8088;SDS011;57635;49.194;12.104;2023-05-15T06:13:57;6.53;;;5.70;;
8088;SDS011;57635;49.194;12.104;2023-05-15T06:16:26;10.40;;;9.30;;
8088;SDS011;57635;49.194;12.104;2023-05-15T06:18:53;6.40;;;6.00;;
8088;SDS011;57635;49.194;12.104;2023-05-15T06:21:21;5.13;;;4.83;;
8088;SDS011;57635;49.194;12.104;2023-05-15T06:23:49;5.50;;;5.17;;
8088;SDS011;57635;49.194;12.104;2023-05-15T06:26:17;5.60;;;5.20;;
8088;SDS011;57635;49.194;12.104;2023-05-15T06:28:45;5.27;;;4.87;;
8088;SDS011;57635;49.194;12.104;2023-05-15T06:31:12;5.47;;;5.03;;
8088;SDS011;57635;49.194;12.104;2023-05-15T06:33:41;5.97;;;5.67;;
8088;SDS011;57635;49.194;12.104;2023-05-15T06:36:09;6.30;;;5.63;;
8088;SDS011;57635;49.194;12.104;2023-05-15T06:38:36;5.43;;;5.13;;
8088;SDS011;57635;49.194;12.104;2023-05-15T06:41:04;5.17;;;4.77;;
8088;SDS011;57635;49.194;12.104;2023-05-15T06:43:32;5.00;;;4.70;;
8088;SDS011;57635;49.194;12.104;2023-05-15T06:46:01;5.17;;;4.87;;
8088;SDS011;57635;49.194;12.104;2023-05-15T06:48:30;5.03;;;4.73;;
8088;SDS011;57635;49.194;12.104;2023-05-15T06:50:59;5.30;;;5.00;;
8088;SDS011;57635;49.194;12.104;2023-05-15T06:53:28;5.30;;;5.00;;
8088;SDS011;57635;49.194;12.104;2023-05-15T06:55:55;5.87;;;5.37;;
8088;SDS011;57635;49.194;12.104;2023-05-15T06:58:23;7.43;;;6.83;;
8088;SDS011;57635;49.194;12.104;2023-05-15T07:00:51;7.73;;;6.63;;
8088;SDS011;57635;49.194;12.104;2023-05-15T07:03:21;5.50;;;5.20;;
8088;SDS011;57635;49.194;12.104;2023-05-15T07:05:49;6.27;;;5.77;;
8088;SDS011;57635;49.194;12.104;2023-05-15T07:08:18;6.23;;;5.67;;
8088;SDS011;57635;49.194;12.104;2023-05-15T07:10:47;5.00;;;4.70;;
8088;SDS011;57635;49.194;12.104;2023-05-15T07:13:15;5.43;;;5.13;;
8088;SDS011;57635;49.194;12.104;2023-05-15T07:15:43;4.87;;;4.67;;
8088;SDS011;57635;49.194;12.104;2023-05-15T07:18:11;4.87;;;4.47;;
8088;SDS011;57635;49.194;12.104;2023-05-15T07:20:39;5.03;;;4.63;;
8088;SDS011;57635;49.194;12.104;2023-05-15T07:23:06;4.37;;;4.17;;
8088;SDS011;57635;49.194;12.104;2023-05-15T07:25:35;4.63;;;4.33;;
8088;SDS011;57635;49.194;12.104;2023-05-15T07:28:03;5.17;;;4.87;;
8088;SDS011;57635;49.194;12.104;2023-05-15T07:30:31;5.27;;;4.87;;
8088;SDS011;57635;49.194;12.104;2023-05-15T07:32:58;4.10;;;3.90;;
8088;SDS011;57635;49.194;12.104;2023-05-15T07:35:26;6.67;;;6.07;;
8088;SDS011;57635;49.194;12.104;2023-05-15T07:37:54;9.03;;;8.23;;
8088;SDS011;57635;49.194;12.104;2023-05-15T07:40:21;4.90;;;4.60;;
8088;SDS011;57635;49.194;12.104;2023-05-15T07:42:50;4.60;;;4.30;;
8088;SDS011;57635;49.194;12.104;2023-05-15T07:45:18;4.13;;;3.90;;
8088;SDS011;57635;49.194;12.104;2023-05-15T07:47:45;4.73;;;4.43;;
8088;SDS011;57635;49.194;12.104;2023-05-15T07:50:14;4.83;;;4.53;;
8088;SDS011;57635;49.194;12.104;2023-05-15T07:52:42;3.90;;;3.70;;
8088;SDS011;57635;49.194;12.104;2023-05-15T07:55:09;3.93;;;3.73;;
8088;SDS011;57635;49.194;12.104;2023-05-15T07:57:37;4.50;;;4.30;;
8088;SDS011;57635;49.194;12.104;2023-05-15T08:00:07;5.73;;;5.37;;
8088;SDS011;57635;49.194;12.104;2023-05-15T08:02:38;5.67;;;5.27;;
8088;SDS011;57635;49.194;12.104;2023-05-15T08:05:06;4.10;;;3.90;;
8088;SDS011;57635;49.194;12.104;2023-05-15T08:07:34;4.53;;;3.50;;
8088;SDS011;57635;49.194;12.104;2023-05-15T08:10:01;3.73;;;3.57;;
8088;SDS011;57635;49.194;12.104;2023-05-15T08:12:31;4.70;;;4.40;;
8088;SDS011;57635;49.194;12.104;2023-05-15T08:14:59;5.43;;;5.13;;
8088;SDS011;57635;49.194;12.104;2023-05-15T08:17:28;5.83;;;5.40;;
8088;SDS011;57635;49.194;12.104;2023-05-15T08:19:55;5.27;;;4.80;;
8088;SDS011;57635;49.194;12.104;2023-05-15T08:22:23;4.50;;;4.30;;
8088;SDS011;57635;49.194;12.104;2023-05-15T08:24:50;4.70;;;4.37;;
8088;SDS011;57635;49.194;12.104;2023-05-15T08:27:18;4.67;;;4.37;;
8088;SDS011;57635;49.194;12.104;2023-05-15T08:29:46;4.67;;;4.47;;
8088;SDS011;57635;49.194;12.104;2023-05-15T08:32:13;5.33;;;4.77;;
8088;SDS011;57635;49.194;12.104;2023-05-15T08:34:42;6.10;;;5.43;;
8088;SDS011;57635;49.194;12.104;2023-05-15T08:37:10;4.97;;;4.67;;
8088;SDS011;57635;49.194;12.104;2023-05-15T08:39:37;4.70;;;4.50;;
8088;SDS011;57635;49.194;12.104;2023-05-15T08:42:07;4.57;;;4.27;;
8088;SDS011;57635;49.194;12.104;2023-05-15T08:44:35;4.63;;;4.37;;
8088;SDS011;57635;49.194;12.104;2023-05-15T08:47:04;4.70;;;4.50;;
8088;SDS011;57635;49.194;12.104;2023-05-15T08:49:35;4.20;;;4.00;;
8088;SDS011;57635;49.194;12.104;2023-05-15T08:52:08;5.20;;;4.70;;
8088;SDS011;57635;49.194;12.104;2023-05-15T08:54:36;5.57;;;5.03;;
8088;SDS011;57635;49.194;12.104;2023-05-15T08:57:05;4.63;;;4.33;;
8088;SDS011;57635;49.194;12.104;2023-05-15T08:59:33;5.00;;;4.70;;
8088;SDS011;57635;49.194;12.104;2023-05-15T09:02:00;5.23;;;4.80;;
8088;SDS011;57635;49.194;12.104;2023-05-15T09:04:28;4.17;;;3.97;;
8088;SDS011;57635;49.194;12.104;2023-05-15T09:06:56;4.70;;;4.40;;
8088;SDS011;57635;49.194;12.104;2023-05-15T09:09:26;4.87;;;4.47;;
8088;SDS011;57635;49.194;12.104;2023-05-15T09:11:54;5.00;;;4.70;;
8088;SDS011;57635;49.194;12.104;2023-05-15T09:14:22;4.87;;;4.57;;
8088;SDS011;57635;49.194;12.104;2023-05-15T09:16:49;4.70;;;4.40;;
8088;SDS011;57635;49.194;12.104;2023-05-15T09:19:18;4.57;;;4.27;;
8088;SDS011;57635;49.194;12.104;2023-05-15T09:21:47;4.50;;;4.23;;
8088;SDS011;57635;49.194;12.104;2023-05-15T09:24:16;5.33;;;4.93;;
8088;SDS011;57635;49.194;12.104;2023-05-15T09:26:46;7.90;;;7.10;;
8088;SDS011;57635;49.194;12.104;2023-05-15T09:29:28;5.10;;;4.80;;
8088;SDS011;57635;49.194;12.104;2023-05-15T09:31:56;4.80;;;4.50;;
8088;SDS011;57635;49.194;12.104;2023-05-15T09:34:29;5.80;;;5.40;;
8088;SDS011;57635;49.194;12.104;2023-05-15T09:36:59;5.17;;;4.80;;
8088;SDS011;57635;49.194;12.104;2023-05-15T09:39:27;4.77;;;4.47;;
8088;SDS011;57635;49.194;12.104;2023-05-15T09:42:05;4.50;;;4.20;;
8088;SDS011;57635;49.194;12.104;2023-05-15T09:44:33;4.33;;;4.10;;
8088;SDS011;57635;49.194;12.104;2023-05-15T09:47:01;4.70;;;4.30;;
8088;SDS011;57635;49.194;12.104;2023-05-15T09:49:31;5.13;;;4.73;;
8088;SDS011;57635;49.194;12.104;2023-05-15T09:51:59;4.10;;;3.90;;
8088;SDS011;57635;49.194;12.104;2023-05-15T09:54:27;4.83;;;4.53;;
8088;SDS011;57635;49.194;12.104;2023-05-15T09:56:56;4.43;;;4.03;;
8088;SDS011;57635;49.194;12.104;2023-05-15T09:59:35;3.83;;;3.63;;
8088;SDS011;57635;49.194;12.104;2023-05-15T10:02:04;3.40;;;3.20;;
8088;SDS011;57635;49.194;12.104;2023-05-15T10:04:35;4.50;;;4.20;;
8088;SDS011;57635;49.194;12.104;2023-05-15T10:07:02;4.47;;;4.27;;
8088;SDS011;57635;49.194;12.104;2023-05-15T10:09:34;4.47;;;4.20;;
8088;SDS011;57635;49.194;12.104;2023-05-15T10:12:01;4.20;;;3.97;;
8088;SDS011;57635;49.194;12.104;2023-05-15T10:14:31;4.97;;;3.63;;
8088;SDS011;57635;49.194;12.104;2023-05-15T10:16:59;3.13;;;3.03;;
8088;SDS011;57635;49.194;12.104;2023-05-15T10:19:26;4.13;;;3.90;;
8088;SDS011;57635;49.194;12.104;2023-05-15T10:21:54;4.50;;;4.30;;
8088;SDS011;57635;49.194;12.104;2023-05-15T10:24:23;4.73;;;4.53;;
8088;SDS011;57635;49.194;12.104;2023-05-15T10:26:51;4.73;;;4.43;;
8088;SDS011;57635;49.194;12.104;2023-05-15T10:29:21;5.10;;;4.73;;
8088;SDS011;57635;49.194;12.104;2023-05-15T10:31:53;5.27;;;5.00;;
8088;SDS011;57635;49.194;12.104;2023-05-15T10:34:21;4.87;;;4.57;;
8088;SDS011;57635;49.194;12.104;2023-05-15T10:36:49;4.70;;;4.40;;
8088;SDS011;57635;49.194;12.104;2023-05-15T10:39:17;4.30;;;4.00;;
8088;SDS011;57635;49.194;12.104;2023-05-15T10:41:45;5.90;;;5.50;;
8088;SDS011;57635;49.194;12.104;2023-05-15T10:44:13;4.70;;;4.03;;
8088;SDS011;57635;49.194;12.104;2023-05-15T10:46:40;3.97;;;3.77;;
8088;SDS011;57635;49.194;12.104;2023-05-15T10:49:09;5.13;;;4.83;;
8088;SDS011;57635;49.194;12.104;2023-05-15T10:51:37;4.47;;;4.20;;
8088;SDS011;57635;49.194;12.104;2023-05-15T10:54:05;5.07;;;4.77;;
8088;SDS011;57635;49.194;12.104;2023-05-15T10:56:37;5.23;;;4.93;;
8088;SDS011;57635;49.194;12.104;2023-05-15T10:59:05;5.43;;;5.00;;
8088;SDS011;57635;49.194;12.104;2023-05-15T11:01:35;5.33;;;4.93;;
8088;SDS011;57635;49.194;12.104;2023-05-15T11:04:04;5.43;;;5.10;;
8088;SDS011;57635;49.194;12.104;2023-05-15T11:06:34;6.80;;;5.53;;
8088;SDS011;57635;49.194;12.104;2023-05-15T11:12:02;6.13;;;5.73;;
8088;SDS011;57635;49.194;12.104;2023-05-15T11:14:31;5.10;;;4.70;;
8088;SDS011;57635;49.194;12.104;2023-05-15T11:16:59;5.20;;;4.73;;
8088;SDS011;57635;49.194;12.104;2023-05-15T11:19:36;4.97;;;4.67;;
8088;SDS011;57635;49.194;12.104;2023-05-15T11:22:16;5.10;;;4.80;;
8088;SDS011;57635;49.194;12.104;2023-05-15T11:24:52;5.27;;;4.90;;
8088;SDS011;57635;49.194;12.104;2023-05-15T11:27:21;5.13;;;4.73;;
8088;SDS011;57635;49.194;12.104;2023-05-15T11:30:05;4.63;;;4.40;;
8088;SDS011;57635;49.194;12.104;2023-05-15T11:32:44;3.67;;;3.47;;
8088;SDS011;57635;49.194;12.104;2023-05-15T11:35:19;4.40;;;4.20;;
8088;SDS011;57635;49.194;12.104;2023-05-15T11:37:49;3.83;;;3.63;;
8088;SDS011;57635;49.194;12.104;2023-05-15T11:40:20;4.53;;;4.13;;
8088;SDS011;57635;49.194;12.104;2023-05-15T11:43:02;3.50;;;3.30;;
8088;SDS011;57635;49.194;12.104;2023-05-15T11:45:34;3.23;;;2.90;;
8088;SDS011;57635;49.194;12.104;2023-05-15T11:48:03;3.97;;;3.77;;
8088;SDS011;57635;49.194;12.104;2023-05-15T11:50:33;4.23;;;3.60;;
8088;SDS011;57635;49.194;12.104;2023-05-15T11:53:03;4.83;;;3.53;;
8088;SDS011;57635;49.194;12.104;2023-05-15T11:55:32;3.00;;;2.80;;
8088;SDS011;57635;49.194;12.104;2023-05-15T11:58:00;2.90;;;2.80;;
8088;SDS011;57635;49.194;12.104;2023-05-15T12:00:28;4.40;;;4.10;;
8088;SDS011;57635;49.194;12.104;2023-05-15T12:02:56;3.67;;;3.43;;
8088;SDS011;57635;49.194;12.104;2023-05-15T12:05:23;4.20;;;3.90;;
8088;SDS011;57635;49.194;12.104;2023-05-15T12:07:51;5.80;;;4.37;;
8088;SDS011;57635;49.194;12.104;2023-05-15T12:10:20;4.23;;;3.97;;
8088;SDS011;57635;49.194;12.104;2023-05-15T12:12:48;4.23;;;3.80;;
8088;SDS011;57635;49.194;12.104;2023-05-15T12:15:16;4.30;;;3.90;;
8088;SDS011;57635;49.194;12.104;2023-05-15T12:17:44;4.23;;;3.73;;
8088;SDS011;57635;49.194;12.104;2023-05-15T12:20:14;3.60;;;3.40;;
8088;SDS011;57635;49.194;12.104;2023-05-15T12:22:43;7.60;;;3.40;;
8088;SDS011;57635;49.194;12.104;2023-05-15T12:25:11;3.57;;;3.30;;
8088;SDS011;57635;49.194;12.104;2023-05-15T12:27:42;3.63;;;3.33;;
8088;SDS011;57635;49.194;12.104;2023-05-15T12:30:10;3.70;;;3.40;;
8088;SDS011;57635;49.194;12.104;2023-05-15T12:32:39;4.13;;;3.37;;
8088;SDS011;57635;49.194;12.104;2023-05-15T12:35:08;2.97;;;2.77;;
8088;SDS011;57635;49.194;12.104;2023-05-15T12:37:37;4.53;;;2.63;;
8088;SDS011;57635;49.194;12.104;2023-05-15T12:40:05;2.50;;;2.30;;
8088;SDS011;57635;49.194;12.104;2023-05-15T12:42:39;2.70;;;2.60;;
8088;SDS011;57635;49.194;12.104;2023-05-15T12:45:12;2.90;;;2.70;;
8088;SDS011;57635;49.194;12.104;2023-05-15T12:47:41;10.97;;;2.80;;
8088;SDS011;57635;49.194;12.104;2023-05-15T12:50:12;3.17;;;2.97;;
8088;SDS011;57635;49.194;12.104;2023-05-15T12:52:45;3.17;;;2.07;;
8088;SDS011;57635;49.194;12.104;2023-05-15T12:55:21;3.03;;;2.70;;
8088;SDS011;57635;49.194;12.104;2023-05-15T12:57:50;2.27;;;2.10;;
8088;SDS011;57635;49.194;12.104;2023-05-15T13:00:21;2.37;;;2.27;;
8088;SDS011;57635;49.194;12.104;2023-05-15T13:02:49;3.60;;;2.07;;
8088;SDS011;57635;49.194;12.104;2023-05-15T13:05:18;2.77;;;2.63;;
8088;SDS011;57635;49.194;12.104;2023-05-15T13:07:46;2.40;;;2.30;;
8088;SDS011;57635;49.194;12.104;2023-05-15T13:10:14;2.07;;;1.97;;
8088;SDS011;57635;49.194;12.104;2023-05-15T13:12:42;2.80;;;2.60;;
8088;SDS011;57635;49.194;12.104;2023-05-15T13:15:22;2.23;;;2.13;;
8088;SDS011;57635;49.194;12.104;2023-05-15T13:17:52;2.50;;;2.40;;
8088;SDS011;57635;49.194;12.104;2023-05-15T13:20:21;3.63;;;2.93;;
8088;SDS011;57635;49.194;12.104;2023-05-15T13:22:50;2.80;;;2.70;;
8088;SDS011;57635;49.194;12.104;2023-05-15T13:25:17;2.37;;;2.27;;
8088;SDS011;57635;49.194;12.104;2023-05-15T13:27:46;2.80;;;2.70;;
8088;SDS011;57635;49.194;12.104;2023-05-15T13:30:14;2.47;;;2.37;;
8088;SDS011;57635;49.194;12.104;2023-05-15T13:32:43;2.57;;;2.47;;
8088;SDS011;57635;49.194;12.104;2023-05-15T13:35:11;2.50;;;2.40;;
8088;SDS011;57635;49.194;12.104;2023-05-15T13:37:38;2.33;;;2.10;;
8088;SDS011;57635;49.194;12.104;2023-05-15T13:40:06;2.70;;;2.60;;
8088;SDS011;57635;49.194;12.104;2023-05-15T13:42:35;2.95;;;2.80;;
8088;SDS011;57635;49.194;12.104;2023-05-15T13:45:03;3.03;;;2.83;;
8088;SDS011;57635;49.194;12.104;2023-05-15T13:47:32;3.10;;;3.00;;
8088;SDS011;57635;49.194;12.104;2023-05-15T13:50:01;2.72;;;2.63;;
8088;SDS011;57635;49.194;12.104;2023-05-15T13:52:29;3.07;;;2.87;;
8088;SDS011;57635;49.194;12.104;2023-05-15T13:54:57;2.80;;;2.60;;
8088;SDS011;57635;49.194;12.104;2023-05-15T13:57:24;2.87;;;2.77;;
8088;SDS011;57635;49.194;12.104;2023-05-15T13:59:52;2.87;;;2.70;;
8088;SDS011;57635;49.194;12.104;2023-05-15T14:02:20;4.63;;;3.90;;
8088;SDS011;57635;49.194;12.104;2023-05-15T14:04:51;3.43;;;3.23;;
8088;SDS011;57635;49.194;12.104;2023-05-15T14:07:21;3.60;;;3.40;;
8088;SDS011;57635;49.194;12.104;2023-05-15T14:09:49;3.20;;;2.97;;
8088;SDS011;57635;49.194;12.104;2023-05-15T14:12:17;2.87;;;2.67;;
8088;SDS011;57635;49.194;12.104;2023-05-15T14:14:45;2.50;;;2.30;;
8088;SDS011;57635;49.194;12.104;2023-05-15T14:17:13;6.70;;;2.70;;
8088;SDS011;57635;49.194;12.104;2023-05-15T14:19:41;2.83;;;2.70;;
8088;SDS011;57635;49.194;12.104;2023-05-15T14:22:09;2.87;;;2.67;;
8088;SDS011;57635;49.194;12.104;2023-05-15T14:24:38;2.47;;;2.37;;
8088;SDS011;57635;49.194;12.104;2023-05-15T14:27:06;3.30;;;3.07;;
8088;SDS011;57635;49.194;12.104;2023-05-15T14:29:34;3.07;;;2.87;;
8088;SDS011;57635;49.194;12.104;2023-05-15T14:32:02;2.77;;;2.53;;
8088;SDS011;57635;49.194;12.104;2023-05-15T14:34:30;3.80;;;3.50;;
8088;SDS011;57635;49.194;12.104;2023-05-15T14:36:57;2.97;;;2.87;;
8088;SDS011;57635;49.194;12.104;2023-05-15T14:39:25;3.10;;;3.00;;
8088;SDS011;57635;49.194;12.104;2023-05-15T14:41:54;3.40;;;3.20;;
8088;SDS011;57635;49.194;12.104;2023-05-15T14:44:22;3.53;;;3.13;;
8088;SDS011;57635;49.194;12.104;2023-05-15T14:47:03;3.63;;;2.87;;
8088;SDS011;57635;49.194;12.104;2023-05-15T14:49:31;3.10;;;3.00;;
8088;SDS011;57635;49.194;12.104;2023-05-15T14:51:58;3.33;;;3.13;;
8088;SDS011;57635;49.194;12.104;2023-05-15T14:54:26;2.97;;;2.87;;
8088;SDS011;57635;49.194;12.104;2023-05-15T14:56:55;5.47;;;3.60;;
8088;SDS011;57635;49.194;12.104;2023-05-15T14:59:23;3.70;;;3.40;;
8088;SDS011;57635;49.194;12.104;2023-05-15T15:01:50;3.60;;;3.40;;
8088;SDS011;57635;49.194;12.104;2023-05-15T15:04:18;3.60;;;3.40;;